Pagrindinis puslapis
METAR-TAF:

METAR-TAF

Oro uostai :

Malmė, Švedija

platuma: 55-33N, ilguma: 013-22E, Aukštis: 106 m

Dabartinis oras

Ataskaita buvo paskelbta 58 minutes, ne 11:50 UTC
Vėjas 7 kt iš Šiaurės/Šiaurės Vakarų, svyruoja nuo Vakarų ir Šiaurės
Temperatūra 6°C
Drėgmė 52%
Slėgis 1016 hPa
Matomumas 10 km arba daugiau
nėra debesų žemiau 1500 m ir nėra kamuolinių lietaus debesų

METAR: ESMS 201150Z 33007KT 280V360 CAVOK 06/M03 Q1016

Laikas: 14:48 (12:48 UTC)

Prognozė

Ataskaita buvo paskelbta 1 valandą ir 39 minutes, ne 11:09 UTC
Prognozė galioja nuo 20 metu 12 UTC su 21 metu 12 UTC
Vėjas 8 kt iš Vakarų/Šiaurės Vakarų
Matomumas 10 km arba daugiau
Išsisklaidę debesys ne aukštis 4000 ft
Laikinai
nuo 20 metu 12 UTC su 20 metu 19 UTC
Išsisklaidę debesys ne aukštis 2000 ft, Liūtiniai kamuoliniai debesys.
Tapsmas
nuo 20 metu 15 UTC su 20 metu 18 UTC
Vėjas 2 kt nuo kintamojo kryptimis

TAF: ESMS 201109Z 2012/2112 30008KT 9999 SCT040 TEMPO 2012/2019 SCT020CB BECMG 2015/2018 VRB02KT

Orai ataskaitas ir orų prognozės (METAR, TAF).

turimą stotys yra geltonos ir raudonos taškus žemėlapyje.

Perkelti pele per norėdami pamatyti stoties vardą.

Tada spustelėkite, norėdami matyti oro stebėjimo ir prognozės.

Norėdami pakeisti žemėlapį: spustelėkite ant žalios mygtukų su juodo kryžiaus žemyn,; žalią mygtuką su brūkšneliu, jei norite nutolinti; arba žalių rodyklių gretimoms žemėlapius.


METAR-TAF: